createdAt,value
2023-01-17T00:01:48.621Z,28.27
2023-01-17T00:04:08.772Z,33.97
2023-01-17T00:06:28.787Z,28.38
2023-01-17T00:08:48.770Z,30.42
2023-01-17T00:10:50.283Z,30.92
2023-01-17T00:12:54.966Z,34.92
2023-01-17T00:14:58.504Z,32.42
2023-01-17T00:17:03.153Z,36.45
2023-01-17T00:19:23.300Z,32.17
2023-01-17T00:21:43.502Z,35.45
2023-01-17T00:24:23.434Z,37.65
2023-01-17T00:26:25.003Z,37.47
2023-01-17T00:28:27.443Z,34.65
2023-01-17T00:30:29.309Z,30.80
2023-01-17T00:32:30.852Z,43.80
2023-01-17T00:34:32.307Z,43.13
2023-01-17T00:36:33.776Z,50.08
2023-01-17T00:38:37.082Z,44.08
2023-01-17T00:40:40.869Z,48.20
2023-01-17T00:42:42.342Z,46.05
2023-01-17T00:45:02.278Z,37.28
2023-01-17T00:47:22.258Z,41.78
2023-01-17T00:49:42.320Z,39.08
2023-01-17T00:52:02.197Z,38.22
2023-01-17T00:54:22.840Z,36.97
2023-01-17T00:56:42.809Z,36.85
2023-01-17T00:59:02.752Z,41.58
2023-01-17T01:01:26.250Z,37.20
2023-01-17T01:03:46.669Z,37.00
2023-01-17T01:06:06.670Z,27.40
2023-01-17T01:08:42.263Z,30.40
2023-01-17T01:11:03.683Z,37.33
2023-01-17T01:13:23.757Z,27.33
2023-01-17T01:15:43.806Z,34.03
2023-01-17T01:18:03.585Z,38.00
2023-01-17T01:20:24.212Z,37.65
2023-01-17T01:22:44.293Z,41.53
2023-01-17T01:25:04.241Z,39.85
2023-01-17T01:27:24.857Z,33.00
2023-01-17T01:29:44.774Z,39.28
2023-01-17T01:32:04.969Z,39.03
2023-01-17T01:34:06.525Z,38.08
2023-01-17T01:36:09.318Z,26.75
2023-01-17T01:38:10.981Z,33.65
2023-01-17T01:40:13.789Z,30.33
2023-01-17T01:42:16.014Z,30.95
2023-01-17T01:44:42.416Z,27.48
2023-01-17T01:46:43.906Z,28.77
2023-01-17T01:49:06.194Z,20.65
2023-01-17T01:51:11.557Z,29.92
2023-01-17T01:53:13.077Z,22.75
2023-01-17T01:55:36.585Z,30.60
2023-01-17T01:57:42.376Z,30.50
2023-01-17T01:59:49.762Z,26.17
2023-01-17T02:01:53.458Z,18.45
2023-01-17T02:03:55.109Z,28.20
2023-01-17T02:06:04.240Z,28.65
2023-01-17T02:08:08.587Z,28.90
2023-01-17T02:10:10.984Z,21.95
2023-01-17T02:12:13.046Z,24.45
2023-01-17T02:14:16.734Z,27.17
2023-01-17T02:16:24.753Z,28.05
2023-01-17T02:18:41.231Z,31.73
2023-01-17T02:21:12.645Z,27.80
2023-01-17T02:23:35.534Z,28.13
2023-01-17T02:26:14.599Z,25.13
2023-01-17T02:28:44.138Z,26.63
2023-01-17T02:30:54.465Z,26.02
2023-01-17T02:33:14.238Z,28.25
2023-01-17T02:35:21.695Z,26.55
2023-01-17T02:37:38.662Z,30.20
2023-01-17T02:39:48.745Z,28.38
2023-01-17T02:42:17.901Z,27.67
2023-01-17T02:44:20.547Z,25.92
2023-01-17T02:46:22.094Z,30.83
2023-01-17T02:48:28.117Z,25.88
2023-01-17T02:51:01.841Z,32.45
2023-01-17T02:53:23.251Z,34.15
2023-01-17T02:55:36.797Z,28.55
2023-01-17T02:58:02.570Z,26.20
2023-01-17T03:00:21.616Z,26.17
2023-01-17T03:02:37.939Z,26.15
2023-01-17T03:04:49.232Z,28.50
2023-01-17T03:07:00.784Z,29.65
2023-01-17T03:09:03.051Z,30.77
2023-01-17T03:11:04.664Z,29.45
2023-01-17T03:13:06.279Z,30.50
2023-01-17T03:15:17.462Z,29.70
2023-01-17T03:17:19.244Z,29.63
2023-01-17T03:19:20.732Z,29.05
2023-01-17T03:21:23.471Z,39.95
2023-01-17T03:23:25.021Z,34.17
2023-01-17T03:25:27.310Z,33.85
2023-01-17T03:27:29.015Z,35.55
2023-01-17T03:29:30.719Z,38.72
2023-01-17T03:31:32.338Z,37.10
2023-01-17T03:33:34.011Z,33.30
2023-01-17T03:35:35.647Z,28.83
2023-01-17T03:37:37.184Z,31.17
2023-01-17T03:39:38.726Z,31.70
2023-01-17T03:41:40.429Z,30.67
2023-01-17T03:43:41.943Z,38.38
2023-01-17T03:45:43.480Z,35.67
2023-01-17T03:47:45.024Z,36.10
2023-01-17T03:49:46.547Z,44.15
2023-01-17T03:51:48.023Z,41.88
2023-01-17T03:53:50.740Z,36.80
2023-01-17T03:55:52.332Z,45.35
2023-01-17T03:57:53.856Z,42.45
2023-01-17T03:59:55.375Z,36.97
2023-01-17T04:01:56.910Z,43.03
2023-01-17T04:03:58.729Z,40.97
2023-01-17T04:06:00.305Z,41.35
2023-01-17T04:08:01.799Z,32.03
2023-01-17T04:10:04.171Z,35.95
2023-01-17T04:12:05.883Z,39.10
2023-01-17T04:14:07.451Z,47.60
2023-01-17T04:16:18.644Z,37.33
2023-01-17T04:18:23.135Z,33.92
2023-01-17T04:20:39.506Z,33.45
2023-01-17T04:22:41.085Z,29.55
2023-01-17T04:24:42.641Z,44.15
2023-01-17T04:26:44.301Z,37.40
2023-01-17T04:28:45.934Z,37.25
2023-01-17T04:30:47.720Z,36.15
2023-01-17T04:32:49.429Z,37.28
2023-01-17T04:34:50.930Z,38.13
2023-01-17T04:36:52.461Z,45.72
2023-01-17T04:38:53.940Z,52.42
2023-01-17T04:40:55.497Z,74.05
2023-01-17T04:42:58.305Z,150.02
2023-01-17T04:44:59.839Z,192.45
2023-01-17T04:47:02.921Z,230.32
2023-01-17T04:49:04.470Z,214.15
2023-01-17T04:51:06.348Z,163.05
2023-01-17T04:53:07.954Z,106.72
2023-01-17T04:55:09.738Z,75.35
2023-01-17T04:57:11.272Z,74.35
2023-01-17T04:59:12.853Z,56.45
2023-01-17T05:01:14.606Z,52.83
2023-01-17T05:03:20.248Z,51.63
2023-01-17T05:05:21.877Z,50.17
2023-01-17T05:07:23.366Z,47.83
2023-01-17T05:09:24.905Z,52.35
2023-01-17T05:11:26.418Z,53.22
2023-01-17T05:13:28.000Z,50.90
2023-01-17T05:15:29.847Z,63.15
2023-01-17T05:17:31.393Z,85.10
2023-01-17T05:19:32.982Z,77.05
2023-01-17T05:21:34.885Z,84.60
2023-01-17T05:23:36.588Z,101.32
2023-01-17T05:25:38.142Z,116.93
2023-01-17T05:27:39.765Z,97.22
2023-01-17T05:29:41.557Z,77.45
2023-01-17T05:31:43.077Z,71.85
2023-01-17T05:33:44.682Z,72.95
2023-01-17T05:35:46.276Z,70.90
2023-01-17T05:37:51.874Z,76.45
2023-01-17T05:39:53.394Z,83.82
2023-01-17T05:41:54.899Z,79.18
2023-01-17T05:43:56.453Z,72.53
2023-01-17T05:45:57.966Z,75.03
2023-01-17T05:47:59.573Z,103.00
2023-01-17T05:50:01.080Z,99.07
2023-01-17T05:52:02.729Z,89.50
2023-01-17T05:54:05.096Z,72.45
2023-01-17T05:56:06.716Z,74.32
2023-01-17T05:58:13.016Z,66.25
2023-01-17T06:00:15.422Z,66.63
2023-01-17T06:02:16.940Z,70.15
2023-01-17T06:04:18.601Z,66.30
2023-01-17T06:06:20.466Z,58.60
2023-01-17T06:08:23.511Z,59.85
2023-01-17T06:10:26.203Z,57.95
2023-01-17T06:12:27.729Z,55.28
2023-01-17T06:14:29.286Z,62.80
2023-01-17T06:16:30.823Z,65.68
2023-01-17T06:18:32.403Z,61.25
2023-01-17T06:20:34.289Z,76.07
2023-01-17T06:22:36.096Z,165.25
2023-01-17T06:24:37.639Z,264.33
2023-01-17T06:26:39.186Z,162.85
2023-01-17T06:28:40.811Z,160.25
2023-01-17T06:30:43.944Z,86.25
2023-01-17T06:32:52.320Z,87.18
2023-01-17T06:34:53.795Z,79.22
2023-01-17T06:36:55.287Z,81.63
2023-01-17T06:38:56.853Z,108.45
2023-01-17T06:41:00.591Z,303.98
2023-01-17T06:43:04.098Z,199.68
2023-01-17T06:45:06.115Z,117.55
2023-01-17T06:47:07.634Z,83.93
2023-01-17T06:49:09.179Z,183.98
2023-01-17T06:51:11.294Z,479.77
2023-01-17T06:53:12.775Z,377.75
2023-01-17T06:55:14.270Z,265.88
2023-01-17T06:57:15.780Z,201.57
2023-01-17T06:59:17.289Z,90.93
2023-01-17T07:01:19.324Z,71.13
2023-01-17T07:03:26.205Z,103.85
2023-01-17T07:05:28.611Z,78.38
2023-01-17T07:07:33.843Z,56.75
2023-01-17T07:09:35.500Z,51.95
2023-01-17T07:11:37.105Z,59.03
2023-01-17T07:13:39.425Z,62.60
2023-01-17T07:15:41.041Z,55.47
2023-01-17T07:17:42.555Z,64.35
2023-01-17T07:19:44.933Z,61.65
2023-01-17T07:21:47.210Z,67.00
2023-01-17T07:23:48.979Z,60.30
2023-01-17T07:25:54.203Z,58.05
2023-01-17T07:27:57.623Z,70.78
2023-01-17T07:29:59.254Z,62.05
2023-01-17T07:32:00.866Z,55.83
2023-01-17T07:34:03.109Z,56.85
2023-01-17T07:36:09.399Z,48.33
2023-01-17T07:38:20.176Z,56.97
2023-01-17T07:40:22.656Z,50.22
2023-01-17T07:42:24.501Z,50.03
2023-01-17T07:44:26.039Z,52.85
2023-01-17T07:46:27.918Z,47.80
2023-01-17T07:48:30.624Z,40.55
2023-01-17T07:50:32.224Z,44.92
2023-01-17T07:52:33.742Z,55.05
2023-01-17T07:54:35.621Z,49.88
2023-01-17T07:56:37.666Z,41.72
2023-01-17T07:58:40.440Z,52.70
2023-01-17T08:00:44.373Z,69.07
2023-01-17T08:02:45.920Z,66.03
2023-01-17T08:04:48.249Z,66.20
2023-01-17T08:06:51.685Z,62.92
2023-01-17T08:08:58.952Z,49.67
2023-01-17T08:11:00.681Z,49.80
2023-01-17T08:13:02.324Z,38.42
2023-01-17T08:15:04.120Z,44.78
2023-01-17T08:17:07.736Z,41.00
2023-01-17T08:19:10.265Z,38.22
2023-01-17T08:21:16.843Z,39.60
2023-01-17T08:23:18.481Z,40.78
2023-01-17T08:25:20.035Z,36.28
2023-01-17T08:27:21.614Z,39.03
2023-01-17T08:29:24.297Z,45.22
2023-01-17T08:31:26.590Z,37.88
2023-01-17T08:33:28.168Z,41.45
2023-01-17T08:35:30.021Z,47.70
2023-01-17T08:37:31.551Z,61.08
2023-01-17T08:39:33.299Z,56.75
2023-01-17T08:41:35.942Z,50.63
2023-01-17T08:43:37.451Z,60.78
2023-01-17T08:45:43.608Z,42.78
2023-01-17T08:47:45.210Z,40.90
2023-01-17T08:49:46.767Z,46.00
2023-01-17T08:51:48.457Z,51.92
2023-01-17T08:53:50.221Z,47.83
2023-01-17T08:55:58.613Z,45.53
2023-01-17T08:58:00.143Z,39.22
2023-01-17T09:00:01.774Z,26.25
2023-01-17T09:02:14.739Z,23.52
2023-01-17T09:04:16.353Z,28.58
2023-01-17T09:06:18.148Z,32.40
2023-01-17T09:08:19.775Z,30.10
2023-01-17T09:10:23.317Z,24.20
2023-01-17T09:12:25.075Z,27.30
2023-01-17T09:14:26.645Z,24.42
2023-01-17T09:16:29.402Z,22.15
2023-01-17T09:18:32.534Z,24.00
2023-01-17T09:20:34.072Z,26.60
2023-01-17T09:22:37.861Z,21.63
2023-01-17T09:24:39.609Z,20.95
2023-01-17T09:26:41.168Z,21.17
2023-01-17T09:28:42.808Z,19.98
2023-01-17T09:30:44.367Z,25.15
2023-01-17T09:32:52.880Z,25.80
2023-01-17T09:34:57.923Z,24.00
2023-01-17T09:36:59.530Z,42.05
2023-01-17T09:39:02.612Z,31.08
2023-01-17T09:41:22.213Z,33.47
2023-01-17T09:44:07.156Z,23.23
2023-01-17T09:46:22.509Z,26.85
2023-01-17T09:48:44.648Z,42.75
2023-01-17T09:51:14.680Z,68.90
2023-01-17T09:53:20.863Z,40.30
2023-01-17T09:55:22.451Z,51.00
2023-01-17T09:58:05.108Z,44.67
2023-01-17T10:00:43.937Z,69.72
2023-01-17T10:03:02.544Z,26.20
2023-01-17T10:05:22.926Z,40.90
2023-01-17T10:07:33.201Z,42.88
2023-01-17T10:09:53.303Z,34.10
2023-01-17T10:12:21.082Z,39.05
2023-01-17T10:14:40.240Z,48.67
2023-01-17T10:17:03.455Z,32.08
2023-01-17T10:19:35.306Z,31.30
2023-01-17T10:22:02.413Z,52.55
2023-01-17T10:24:25.819Z,50.58
2023-01-17T10:26:27.699Z,31.55
2023-01-17T10:28:47.285Z,27.33
2023-01-17T10:30:59.687Z,27.65
2023-01-17T10:33:24.382Z,31.05
2023-01-17T10:35:31.011Z,26.15
2023-01-17T10:37:44.153Z,33.90
2023-01-17T10:39:48.704Z,25.38
2023-01-17T10:41:59.435Z,29.90
2023-01-17T10:44:18.544Z,25.13
2023-01-17T10:46:28.530Z,25.33
2023-01-17T10:48:36.192Z,26.25
2023-01-17T10:50:51.284Z,25.13
2023-01-17T10:53:07.753Z,33.40
2023-01-17T10:55:40.055Z,21.73
2023-01-17T10:57:44.567Z,22.15
2023-01-17T10:59:46.603Z,23.77
2023-01-17T11:01:50.375Z,19.42
2023-01-17T11:03:54.636Z,28.50
2023-01-17T11:06:18.031Z,23.02
2023-01-17T11:08:22.017Z,21.63
2023-01-17T11:10:45.001Z,20.65
2023-01-17T11:12:47.410Z,20.88
2023-01-17T11:15:01.575Z,22.02
2023-01-17T11:17:05.865Z,22.80
2023-01-17T11:19:10.926Z,24.45
2023-01-17T11:21:24.560Z,20.33
2023-01-17T11:23:31.629Z,25.25
2023-01-17T11:25:34.356Z,20.13
2023-01-17T11:27:40.979Z,18.42
2023-01-17T11:29:42.527Z,21.40
2023-01-17T11:31:44.071Z,24.05
2023-01-17T11:33:49.351Z,21.25
2023-01-17T11:35:50.896Z,33.00
2023-01-17T11:37:57.022Z,23.35
2023-01-17T11:40:20.613Z,20.80
2023-01-17T11:42:36.752Z,17.60
2023-01-17T11:44:38.287Z,16.63
2023-01-17T11:46:39.975Z,38.00
2023-01-17T11:48:41.607Z,26.08
2023-01-17T11:51:00.001Z,38.15
2023-01-17T11:53:07.454Z,29.42
2023-01-17T11:55:21.123Z,29.25
2023-01-17T11:57:35.954Z,19.17
2023-01-17T11:59:42.525Z,21.50
2023-01-17T12:01:55.822Z,28.70
2023-01-17T12:04:24.069Z,23.98
2023-01-17T12:06:47.770Z,35.10
2023-01-17T12:09:08.830Z,28.55
2023-01-17T12:11:25.070Z,24.73
2023-01-17T12:14:01.177Z,43.05
2023-01-17T12:16:40.831Z,13.25
2023-01-17T12:18:54.019Z,16.17
2023-01-17T12:21:01.131Z,14.88
2023-01-17T12:23:17.547Z,19.88
2023-01-17T12:25:40.336Z,17.42
2023-01-17T12:28:11.574Z,16.60
2023-01-17T12:30:30.871Z,16.92
2023-01-17T12:32:54.202Z,28.08
2023-01-17T12:34:59.019Z,18.17
2023-01-17T12:37:12.414Z,20.45
2023-01-17T12:39:16.983Z,16.95
2023-01-17T12:41:31.447Z,15.07
2023-01-17T12:43:43.950Z,16.92
2023-01-17T12:45:48.204Z,29.35
2023-01-17T12:47:56.701Z,21.35
2023-01-17T12:50:29.115Z,14.98
2023-01-17T12:53:14.740Z,16.85
2023-01-17T12:55:22.336Z,14.07
2023-01-17T12:57:33.635Z,15.32
2023-01-17T12:59:42.574Z,13.00
2023-01-17T13:01:57.481Z,11.97
2023-01-17T13:04:25.366Z,8.85
2023-01-17T13:06:47.847Z,11.57
2023-01-17T13:08:53.167Z,9.48
2023-01-17T13:11:01.041Z,12.35
2023-01-17T13:13:13.578Z,14.32
2023-01-17T13:15:22.951Z,11.18
2023-01-17T13:17:38.571Z,9.82
2023-01-17T13:19:50.235Z,10.70
2023-01-17T13:21:52.655Z,17.92
2023-01-17T13:24:02.031Z,20.75
2023-01-17T13:26:13.995Z,30.42
2023-01-17T13:28:43.545Z,28.35
2023-01-17T13:31:00.024Z,67.20
2023-01-17T13:33:25.205Z,53.42
2023-01-17T13:35:42.827Z,54.88
2023-01-17T13:38:04.192Z,15.73
2023-01-17T13:40:33.858Z,33.35
2023-01-17T13:42:53.995Z,23.02
2023-01-17T13:44:56.906Z,26.92
2023-01-17T13:47:02.770Z,35.65
2023-01-17T13:49:34.318Z,28.77
2023-01-17T13:52:11.006Z,47.58
2023-01-17T13:54:33.470Z,37.53
2023-01-17T13:56:36.207Z,42.47
2023-01-17T13:58:54.684Z,132.38
2023-01-17T14:01:04.478Z,67.03
2023-01-17T14:05:23.209Z,26.05
2023-01-17T14:07:26.328Z,55.78
2023-01-17T14:09:30.411Z,50.97
2023-01-17T14:11:55.222Z,85.07
2023-01-17T14:13:56.749Z,46.25
2023-01-17T14:15:58.620Z,62.50
2023-01-17T14:18:04.171Z,72.03
2023-01-17T14:20:13.209Z,60.47
2023-01-17T14:22:29.880Z,15.80
2023-01-17T14:24:31.641Z,39.50
2023-01-17T14:26:42.092Z,35.90
2023-01-17T14:28:43.643Z,48.00
2023-01-17T14:30:45.803Z,47.80
2023-01-17T14:33:03.065Z,41.88
2023-01-17T14:35:05.753Z,18.60
2023-01-17T14:37:33.107Z,24.50
2023-01-17T14:39:44.692Z,16.35
2023-01-17T14:41:46.246Z,26.95
2023-01-17T14:43:59.619Z,32.05
2023-01-17T14:46:22.654Z,30.88
2023-01-17T14:48:28.734Z,23.20
2023-01-17T14:50:44.400Z,19.73
2023-01-17T14:53:18.168Z,19.90
2023-01-17T14:55:20.978Z,39.13
2023-01-17T14:57:28.792Z,24.98
2023-01-17T14:59:30.412Z,62.60
2023-01-17T15:01:33.904Z,66.35
2023-01-17T15:03:44.216Z,66.20
2023-01-17T15:05:48.849Z,94.25
2023-01-17T15:07:53.134Z,129.30
2023-01-17T15:09:54.703Z,85.05
2023-01-17T15:11:57.591Z,53.55
2023-01-17T15:14:05.742Z,42.80
2023-01-17T15:16:18.184Z,55.47
2023-01-17T15:18:22.309Z,42.20
2023-01-17T15:20:24.134Z,42.50
2023-01-17T15:22:26.673Z,91.75
2023-01-17T15:24:34.559Z,76.93
2023-01-17T15:26:44.851Z,77.75
2023-01-17T15:28:46.936Z,102.43
2023-01-17T15:31:05.493Z,96.25
2023-01-17T15:33:16.851Z,74.97
2023-01-17T15:35:19.262Z,70.97
2023-01-17T15:37:36.362Z,68.95
2023-01-17T15:39:40.434Z,79.53
2023-01-17T15:41:42.007Z,95.43
2023-01-17T15:43:45.323Z,139.55
2023-01-17T15:45:57.184Z,88.75
2023-01-17T15:48:33.957Z,438.67
2023-01-17T15:50:38.579Z,528.55
2023-01-17T15:52:51.080Z,126.65
2023-01-17T15:54:58.706Z,110.60
2023-01-17T15:57:18.176Z,493.40
2023-01-17T15:59:22.828Z,1181.07
2023-01-17T16:01:27.388Z,869.78
2023-01-17T16:03:30.736Z,1378.63
2023-01-17T16:05:38.620Z,712.55
2023-01-17T16:07:40.133Z,297.70
2023-01-17T16:09:44.189Z,412.77
2023-01-17T16:11:45.820Z,475.45
2023-01-17T16:13:48.554Z,326.30
2023-01-17T16:15:50.239Z,384.35
2023-01-17T16:18:19.042Z,455.00
2023-01-17T16:20:28.122Z,304.65
2023-01-17T16:22:29.681Z,793.67
2023-01-17T16:24:31.745Z,571.33
2023-01-17T16:26:33.729Z,390.00
2023-01-17T16:28:35.340Z,141.52
2023-01-17T16:30:36.998Z,185.88
2023-01-17T16:32:38.572Z,530.65
2023-01-17T16:34:40.639Z,191.57
2023-01-17T16:36:42.242Z,192.57
2023-01-17T16:38:45.130Z,144.15
2023-01-17T16:40:47.506Z,276.30
2023-01-17T16:42:49.293Z,221.10
2023-01-17T16:44:50.842Z,191.02
2023-01-17T16:46:52.647Z,180.95
2023-01-17T16:48:54.291Z,131.50
2023-01-17T16:50:56.159Z,203.75
2023-01-17T16:52:57.630Z,291.88
2023-01-17T16:55:00.345Z,244.63
2023-01-17T16:57:01.924Z,304.77
2023-01-17T16:59:03.604Z,184.15
2023-01-17T17:01:16.929Z,143.52
2023-01-17T17:03:20.375Z,93.35
2023-01-17T17:05:21.952Z,58.20
2023-01-17T17:07:23.582Z,44.80
2023-01-17T17:09:25.120Z,46.88
2023-01-17T17:11:26.654Z,53.45
2023-01-17T17:13:28.164Z,90.03
2023-01-17T17:15:29.734Z,144.40
2023-01-17T17:17:35.957Z,163.65
2023-01-17T17:19:37.508Z,179.85
2023-01-17T17:21:39.010Z,119.65
2023-01-17T17:23:40.700Z,104.95
2023-01-17T17:25:42.300Z,113.22
2023-01-17T17:27:43.893Z,88.43
2023-01-17T17:29:45.390Z,51.22
2023-01-17T17:31:47.204Z,81.68
2023-01-17T17:33:49.055Z,68.75
2023-01-17T17:35:50.572Z,71.65
2023-01-17T17:37:52.349Z,209.70
2023-01-17T17:39:54.210Z,157.57
2023-01-17T17:41:55.813Z,112.28
2023-01-17T17:43:58.164Z,127.53
2023-01-17T17:45:59.778Z,129.57
2023-01-17T17:48:01.383Z,237.80
2023-01-17T17:50:02.944Z,212.45
2023-01-17T17:52:08.284Z,365.48
2023-01-17T17:54:12.969Z,205.50
2023-01-17T17:56:14.517Z,222.05
2023-01-17T17:58:16.111Z,168.93
2023-01-17T18:00:18.263Z,176.95
2023-01-17T18:02:19.837Z,173.00
2023-01-17T18:04:22.128Z,215.20
2023-01-17T18:06:24.047Z,223.32
2023-01-17T18:08:25.619Z,144.52
2023-01-17T18:10:27.703Z,206.52
2023-01-17T18:12:29.208Z,240.23
2023-01-17T18:14:30.826Z,128.52
2023-01-17T18:16:36.012Z,109.65
2023-01-17T18:18:44.102Z,95.32
2023-01-17T18:20:45.687Z,119.57
2023-01-17T18:22:47.214Z,121.70
2023-01-17T18:24:48.803Z,175.50
2023-01-17T18:26:56.940Z,154.70
2023-01-17T18:28:59.681Z,269.13
2023-01-17T18:31:05.223Z,247.27
2023-01-17T18:33:06.742Z,204.35
2023-01-17T18:35:08.662Z,151.57
2023-01-17T18:37:10.217Z,164.68
2023-01-17T18:39:15.614Z,146.38
2023-01-17T18:41:18.732Z,120.55
2023-01-17T18:43:20.358Z,109.30
2023-01-17T18:45:21.882Z,103.93
2023-01-17T18:47:23.884Z,127.18
2023-01-17T18:49:25.380Z,110.80
2023-01-17T18:51:29.334Z,127.78
2023-01-17T18:53:32.858Z,98.15
2023-01-17T18:55:34.378Z,100.07
2023-01-17T18:57:35.975Z,67.57
2023-01-17T18:59:37.634Z,56.47
2023-01-17T19:01:42.332Z,53.80
2023-01-17T19:03:45.882Z,59.13
2023-01-17T19:05:48.364Z,85.00
2023-01-17T19:07:50.314Z,119.47
2023-01-17T19:09:51.876Z,148.88
2023-01-17T19:11:53.948Z,139.68
2023-01-17T19:13:56.647Z,161.75
2023-01-17T19:16:03.484Z,227.50
2023-01-17T19:18:05.606Z,260.30
2023-01-17T19:20:09.264Z,297.83
2023-01-17T19:22:10.790Z,300.77
2023-01-17T19:24:13.297Z,314.08
2023-01-17T19:26:17.226Z,326.73
2023-01-17T19:28:18.807Z,257.00
2023-01-17T19:30:20.706Z,475.35
2023-01-17T19:32:22.232Z,392.05
2023-01-17T19:34:23.806Z,376.40
2023-01-17T19:36:31.382Z,426.70
2023-01-17T19:38:35.089Z,394.52
2023-01-17T19:40:36.679Z,473.38
2023-01-17T19:42:38.190Z,389.88
2023-01-17T19:44:39.697Z,260.10
2023-01-17T19:46:41.385Z,198.20
2023-01-17T19:48:42.949Z,151.65
2023-01-17T19:50:44.504Z,146.05
2023-01-17T19:52:46.083Z,404.05
2023-01-17T19:54:47.605Z,539.92
2023-01-17T19:56:49.811Z,640.42
2023-01-17T19:58:52.478Z,508.02
2023-01-17T20:00:55.113Z,363.35
2023-01-17T20:02:56.755Z,329.17
2023-01-17T20:04:59.457Z,201.73
2023-01-17T20:07:01.037Z,240.27
2023-01-17T20:09:03.767Z,180.52
2023-01-17T20:11:18.463Z,262.77
2023-01-17T20:13:20.119Z,201.82
2023-01-17T20:15:24.051Z,241.63
2023-01-17T20:17:25.563Z,277.70
2023-01-17T20:19:27.088Z,294.38
2023-01-17T20:21:30.108Z,300.30
2023-01-17T20:23:36.004Z,297.73
2023-01-17T20:25:37.531Z,316.05
2023-01-17T20:27:40.886Z,291.27
2023-01-17T20:29:42.658Z,257.67
2023-01-17T20:31:45.743Z,277.55
2023-01-17T20:33:50.358Z,322.92
2023-01-17T20:36:08.783Z,237.57
2023-01-17T20:40:13.509Z,191.48
2023-01-17T20:42:15.021Z,196.45
2023-01-17T20:44:16.908Z,178.68
2023-01-17T20:46:20.792Z,179.02
2023-01-17T20:48:22.503Z,271.42
2023-01-17T20:50:24.012Z,315.10
2023-01-17T20:52:25.517Z,265.33
2023-01-17T20:54:27.232Z,261.25
2023-01-17T20:56:30.331Z,265.35
2023-01-17T20:58:34.056Z,239.15
2023-01-17T21:00:37.798Z,211.32
2023-01-17T21:02:39.367Z,174.85
2023-01-17T21:04:40.993Z,167.20
2023-01-17T21:06:43.612Z,194.25
2023-01-17T21:08:46.484Z,169.52
2023-01-17T21:10:48.682Z,189.15
2023-01-17T21:12:50.228Z,174.88
2023-01-17T21:14:51.807Z,140.27
2023-01-17T21:16:53.480Z,117.25
2023-01-17T21:18:55.091Z,100.60
2023-01-17T21:21:02.361Z,120.10
2023-01-17T21:23:03.884Z,141.57
2023-01-17T21:25:10.009Z,129.25
2023-01-17T21:27:12.906Z,158.73
2023-01-17T21:29:16.220Z,179.07
2023-01-17T21:31:24.828Z,168.65
2023-01-17T21:33:28.576Z,174.63
2023-01-17T21:35:31.692Z,176.02
2023-01-17T21:37:33.221Z,186.15
2023-01-17T21:39:34.780Z,156.45
2023-01-17T21:41:37.976Z,166.82
2023-01-17T21:43:39.559Z,164.55
2023-01-17T21:45:42.162Z,125.05
2023-01-17T21:47:44.559Z,105.85
2023-01-17T21:49:46.772Z,103.03
2023-01-17T21:51:54.036Z,107.70
2023-01-17T21:53:55.538Z,116.05
2023-01-17T21:56:20.481Z,109.05
2023-01-17T21:58:40.973Z,141.57
2023-01-17T22:00:43.287Z,95.70
2023-01-17T22:02:46.727Z,88.30
2023-01-17T22:04:48.260Z,76.13
2023-01-17T22:06:49.831Z,73.43
2023-01-17T22:08:51.689Z,101.82
2023-01-17T22:10:53.477Z,119.35
2023-01-17T22:12:54.992Z,105.50
2023-01-17T22:14:56.523Z,98.25
2023-01-17T22:16:58.160Z,77.50
2023-01-17T22:18:59.684Z,94.25
2023-01-17T22:21:05.804Z,92.85
2023-01-17T22:23:11.553Z,89.82
2023-01-17T22:25:13.098Z,116.53
2023-01-17T22:27:14.665Z,119.82
2023-01-17T22:29:18.850Z,132.88
2023-01-17T22:31:23.340Z,99.43
2023-01-17T22:33:24.896Z,102.65
2023-01-17T22:35:26.469Z,86.45
2023-01-17T22:37:28.026Z,90.15
2023-01-17T22:39:29.541Z,92.53
2023-01-17T22:41:32.858Z,80.47
2023-01-17T22:43:36.285Z,78.97
2023-01-17T22:45:37.828Z,73.75
2023-01-17T22:47:39.431Z,91.25
2023-01-17T22:49:40.928Z,98.72
2023-01-17T22:51:42.690Z,117.60
2023-01-17T22:53:52.385Z,116.68
2023-01-17T22:58:01.962Z,78.47
2023-01-17T23:00:14.359Z,69.82
2023-01-17T23:02:16.740Z,69.40
2023-01-17T23:04:18.276Z,65.00
2023-01-17T23:06:28.473Z,65.78
2023-01-17T23:08:30.033Z,76.97
2023-01-17T23:10:50.300Z,70.55
2023-01-17T23:12:51.870Z,71.25
2023-01-17T23:15:12.144Z,77.68
2023-01-17T23:17:32.328Z,79.00
2023-01-17T23:19:38.930Z,72.00
2023-01-17T23:21:58.737Z,71.28
2023-01-17T23:24:00.255Z,80.10
2023-01-17T23:26:01.890Z,69.53
2023-01-17T23:28:14.411Z,100.38
2023-01-17T23:30:17.721Z,97.53
2023-01-17T23:32:19.269Z,91.90
2023-01-17T23:34:21.362Z,87.70
2023-01-17T23:36:22.973Z,86.97
2023-01-17T23:38:29.169Z,96.60
2023-01-17T23:40:32.588Z,85.43
2023-01-17T23:42:52.704Z,87.13
2023-01-17T23:44:54.257Z,89.57
2023-01-17T23:46:55.845Z,81.80
2023-01-17T23:48:57.411Z,88.97
2023-01-17T23:51:00.971Z,95.45
2023-01-17T23:53:08.660Z,107.05
2023-01-17T23:55:10.189Z,139.43
2023-01-17T23:57:11.711Z,122.03
2023-01-17T23:59:13.374Z,100.00
